sensor_id;sensor_type;location;lat;lon;timestamp;temperature;humidity
78988;DHT22;74752;44.786;37.680;2024-02-15T00:00:48;11.77;70.81
78988;DHT22;74752;44.786;37.680;2024-02-15T00:01:59;11.77;70.93
78988;DHT22;74752;44.786;37.680;2024-02-15T00:03:05;11.76;71.19
78988;DHT22;74752;44.786;37.680;2024-02-15T00:04:09;11.75;71.45
78988;DHT22;74752;44.786;37.680;2024-02-15T00:05:13;11.76;71.31
78988;DHT22;74752;44.786;37.680;2024-02-15T00:06:17;11.72;71.42
78988;DHT22;74752;44.786;37.680;2024-02-15T00:07:18;11.68;71.65
78988;DHT22;74752;44.786;37.680;2024-02-15T00:08:28;11.67;70.91
78988;DHT22;74752;44.786;37.680;2024-02-15T00:09:32;11.64;71.22
78988;DHT22;74752;44.786;37.680;2024-02-15T00:10:34;11.61;71.80
78988;DHT22;74752;44.786;37.680;2024-02-15T00:11:39;11.57;71.88
78988;DHT22;74752;44.786;37.680;2024-02-15T00:12:46;11.57;71.50
78988;DHT22;74752;44.786;37.680;2024-02-15T00:13:49;11.56;71.59
78988;DHT22;74752;44.786;37.680;2024-02-15T00:14:58;11.55;71.76
78988;DHT22;74752;44.786;37.680;2024-02-15T00:16:01;11.53;71.92
78988;DHT22;74752;44.786;37.680;2024-02-15T00:17:06;11.51;72.20
78988;DHT22;74752;44.786;37.680;2024-02-15T00:18:08;11.47;72.22
78988;DHT22;74752;44.786;37.680;2024-02-15T00:19:15;11.48;72.38
78988;DHT22;74752;44.786;37.680;2024-02-15T00:20:18;11.47;72.47
78988;DHT22;74752;44.786;37.680;2024-02-15T00:21:22;11.46;72.61
78988;DHT22;74752;44.786;37.680;2024-02-15T00:22:26;11.43;71.85
78988;DHT22;74752;44.786;37.680;2024-02-15T00:23:28;11.42;72.17
78988;DHT22;74752;44.786;37.680;2024-02-15T00:24:36;11.41;72.07
78988;DHT22;74752;44.786;37.680;2024-02-15T00:25:39;11.42;72.27
78988;DHT22;74752;44.786;37.680;2024-02-15T00:26:41;11.40;72.45
78988;DHT22;74752;44.786;37.680;2024-02-15T00:27:46;11.38;72.50
78988;DHT22;74752;44.786;37.680;2024-02-15T00:28:48;11.33;72.36
78988;DHT22;74752;44.786;37.680;2024-02-15T00:29:56;11.31;72.42
78988;DHT22;74752;44.786;37.680;2024-02-15T00:30:58;11.29;72.90
78988;DHT22;74752;44.786;37.680;2024-02-15T00:32:04;11.27;72.99
78988;DHT22;74752;44.786;37.680;2024-02-15T00:33:11;11.25;72.99
78988;DHT22;74752;44.786;37.680;2024-02-15T00:34:13;11.28;71.91
78988;DHT22;74752;44.786;37.680;2024-02-15T00:35:18;11.36;72.54
78988;DHT22;74752;44.786;37.680;2024-02-15T00:36:26;11.30;71.74
78988;DHT22;74752;44.786;37.680;2024-02-15T00:37:31;11.32;72.76
78988;DHT22;74752;44.786;37.680;2024-02-15T00:38:34;11.28;72.93
78988;DHT22;74752;44.786;37.680;2024-02-15T00:39:36;11.24;72.51
78988;DHT22;74752;44.786;37.680;2024-02-15T00:40:38;11.23;72.87
78988;DHT22;74752;44.786;37.680;2024-02-15T00:41:41;11.19;73.52
78988;DHT22;74752;44.786;37.680;2024-02-15T00:42:44;11.18;72.83
78988;DHT22;74752;44.786;37.680;2024-02-15T00:43:46;11.18;73.48
78988;DHT22;74752;44.786;37.680;2024-02-15T00:44:54;11.17;73.58
78988;DHT22;74752;44.786;37.680;2024-02-15T00:45:57;11.17;73.75
78988;DHT22;74752;44.786;37.680;2024-02-15T00:46:58;11.13;73.28
78988;DHT22;74752;44.786;37.680;2024-02-15T00:48:01;11.15;72.97
78988;DHT22;74752;44.786;37.680;2024-02-15T00:49:08;11.18;73.22
78988;DHT22;74752;44.786;37.680;2024-02-15T00:50:11;11.18;73.27
78988;DHT22;74752;44.786;37.680;2024-02-15T00:51:15;11.16;73.96
78988;DHT22;74752;44.786;37.680;2024-02-15T00:52:17;11.10;74.06
78988;DHT22;74752;44.786;37.680;2024-02-15T00:53:22;11.05;74.23
78988;DHT22;74752;44.786;37.680;2024-02-15T00:54:25;11.03;74.38
78988;DHT22;74752;44.786;37.680;2024-02-15T00:55:26;11.01;73.85
78988;DHT22;74752;44.786;37.680;2024-02-15T00:56:28;11.00;74.38
78988;DHT22;74752;44.786;37.680;2024-02-15T00:57:31;10.98;74.99
78988;DHT22;74752;44.786;37.680;2024-02-15T00:58:33;10.97;74.96
78988;DHT22;74752;44.786;37.680;2024-02-15T00:59:36;10.93;75.09
78988;DHT22;74752;44.786;37.680;2024-02-15T01:00:37;10.87;74.70
78988;DHT22;74752;44.786;37.680;2024-02-15T01:01:43;10.87;75.02
78988;DHT22;74752;44.786;37.680;2024-02-15T01:02:50;10.84;75.20
78988;DHT22;74752;44.786;37.680;2024-02-15T01:03:55;10.85;74.64
78988;DHT22;74752;44.786;37.680;2024-02-15T01:04:59;10.87;74.97
78988;DHT22;74752;44.786;37.680;2024-02-15T01:06:07;10.88;74.86
78988;DHT22;74752;44.786;37.680;2024-02-15T01:07:12;10.85;75.11
78988;DHT22;74752;44.786;37.680;2024-02-15T01:08:15;10.80;75.34
78988;DHT22;74752;44.786;37.680;2024-02-15T01:09:16;10.75;75.35
78988;DHT22;74752;44.786;37.680;2024-02-15T01:10:25;10.73;75.10
78988;DHT22;74752;44.786;37.680;2024-02-15T01:11:32;10.73;75.15
78988;DHT22;74752;44.786;37.680;2024-02-15T01:12:35;10.75;75.44
78988;DHT22;74752;44.786;37.680;2024-02-15T01:13:39;10.77;75.27
78988;DHT22;74752;44.786;37.680;2024-02-15T01:14:41;10.73;75.47
78988;DHT22;74752;44.786;37.680;2024-02-15T01:15:45;10.72;75.24
78988;DHT22;74752;44.786;37.680;2024-02-15T01:16:52;10.68;75.65
78988;DHT22;74752;44.786;37.680;2024-02-15T01:17:58;10.65;75.84
78988;DHT22;74752;44.786;37.680;2024-02-15T01:19:02;10.65;75.84
78988;DHT22;74752;44.786;37.680;2024-02-15T01:20:04;10.63;76.12
78988;DHT22;74752;44.786;37.680;2024-02-15T01:21:07;10.62;76.26
78988;DHT22;74752;44.786;37.680;2024-02-15T01:22:16;10.58;75.95
78988;DHT22;74752;44.786;37.680;2024-02-15T01:23:18;10.62;75.69
78988;DHT22;74752;44.786;37.680;2024-02-15T01:24:23;10.58;76.02
78988;DHT22;74752;44.786;37.680;2024-02-15T01:25:26;10.59;76.33
78988;DHT22;74752;44.786;37.680;2024-02-15T01:26:29;10.58;75.74
78988;DHT22;74752;44.786;37.680;2024-02-15T01:27:31;10.58;76.35
78988;DHT22;74752;44.786;37.680;2024-02-15T01:28:36;10.55;76.67
78988;DHT22;74752;44.786;37.680;2024-02-15T01:29:38;10.49;76.08
78988;DHT22;74752;44.786;37.680;2024-02-15T01:30:42;10.49;76.63
78988;DHT22;74752;44.786;37.680;2024-02-15T01:31:47;10.49;76.89
78988;DHT22;74752;44.786;37.680;2024-02-15T01:32:56;10.48;76.94
78988;DHT22;74752;44.786;37.680;2024-02-15T01:34:04;10.46;76.17
78988;DHT22;74752;44.786;37.680;2024-02-15T01:35:06;10.43;76.76
78988;DHT22;74752;44.786;37.680;2024-02-15T01:36:18;10.41;76.98
78988;DHT22;74752;44.786;37.680;2024-02-15T01:37:21;10.40;77.34
78988;DHT22;74752;44.786;37.680;2024-02-15T01:38:24;10.38;77.56
78988;DHT22;74752;44.786;37.680;2024-02-15T01:39:27;10.36;77.28
78988;DHT22;74752;44.786;37.680;2024-02-15T01:40:28;10.31;77.21
78988;DHT22;74752;44.786;37.680;2024-02-15T01:41:31;10.36;77.40
78988;DHT22;74752;44.786;37.680;2024-02-15T01:42:34;10.28;77.48
78988;DHT22;74752;44.786;37.680;2024-02-15T01:43:37;10.27;77.24
78988;DHT22;74752;44.786;37.680;2024-02-15T01:44:40;10.28;77.67
78988;DHT22;74752;44.786;37.680;2024-02-15T01:45:52;10.25;77.91
78988;DHT22;74752;44.786;37.680;2024-02-15T01:46:55;10.24;77.47
78988;DHT22;74752;44.786;37.680;2024-02-15T01:47:57;10.25;77.72
78988;DHT22;74752;44.786;37.680;2024-02-15T01:49:07;10.25;77.81
78988;DHT22;74752;44.786;37.680;2024-02-15T01:50:17;10.25;77.96
78988;DHT22;74752;44.786;37.680;2024-02-15T01:51:23;10.24;78.21
78988;DHT22;74752;44.786;37.680;2024-02-15T01:52:26;10.23;78.23
78988;DHT22;74752;44.786;37.680;2024-02-15T01:53:29;10.25;78.39
78988;DHT22;74752;44.786;37.680;2024-02-15T01:54:32;10.22;78.48
78988;DHT22;74752;44.786;37.680;2024-02-15T01:55:35;10.22;78.56
78988;DHT22;74752;44.786;37.680;2024-02-15T01:56:36;10.18;78.90
78988;DHT22;74752;44.786;37.680;2024-02-15T01:57:41;10.14;79.09
78988;DHT22;74752;44.786;37.680;2024-02-15T01:58:49;10.11;79.04
78988;DHT22;74752;44.786;37.680;2024-02-15T01:59:54;10.09;79.05
78988;DHT22;74752;44.786;37.680;2024-02-15T02:01:00;10.09;79.18
78988;DHT22;74752;44.786;37.680;2024-02-15T02:02:08;10.08;79.17
78988;DHT22;74752;44.786;37.680;2024-02-15T02:03:15;10.09;78.92
78988;DHT22;74752;44.786;37.680;2024-02-15T02:04:23;10.08;79.14
78988;DHT22;74752;44.786;37.680;2024-02-15T02:05:27;10.06;79.25
78988;DHT22;74752;44.786;37.680;2024-02-15T02:06:39;10.05;79.25
78988;DHT22;74752;44.786;37.680;2024-02-15T02:07:42;10.04;79.43
78988;DHT22;74752;44.786;37.680;2024-02-15T02:08:44;10.00;79.53
78988;DHT22;74752;44.786;37.680;2024-02-15T02:09:48;9.98;79.91
78988;DHT22;74752;44.786;37.680;2024-02-15T02:10:53;9.97;80.04
78988;DHT22;74752;44.786;37.680;2024-02-15T02:11:55;9.96;79.30
78988;DHT22;74752;44.786;37.680;2024-02-15T02:12:57;9.99;79.13
78988;DHT22;74752;44.786;37.680;2024-02-15T02:13:59;10.01;79.30
78988;DHT22;74752;44.786;37.680;2024-02-15T02:15:01;10.01;79.70
78988;DHT22;74752;44.786;37.680;2024-02-15T02:16:27;9.99;79.82
78988;DHT22;74752;44.786;37.680;2024-02-15T02:17:34;9.96;79.88
78988;DHT22;74752;44.786;37.680;2024-02-15T02:18:39;9.93;80.14
78988;DHT22;74752;44.786;37.680;2024-02-15T02:19:45;9.91;80.17
78988;DHT22;74752;44.786;37.680;2024-02-15T02:20:50;9.91;79.89
78988;DHT22;74752;44.786;37.680;2024-02-15T02:21:55;9.96;79.69
78988;DHT22;74752;44.786;37.680;2024-02-15T02:23:08;9.97;79.50
78988;DHT22;74752;44.786;37.680;2024-02-15T02:24:21;9.96;80.00
78988;DHT22;74752;44.786;37.680;2024-02-15T02:25:27;9.92;80.25
78988;DHT22;74752;44.786;37.680;2024-02-15T02:26:29;9.86;80.55
78988;DHT22;74752;44.786;37.680;2024-02-15T02:27:32;9.85;80.75
78988;DHT22;74752;44.786;37.680;2024-02-15T02:28:38;9.82;80.62
78988;DHT22;74752;44.786;37.680;2024-02-15T02:29:43;9.81;80.65
78988;DHT22;74752;44.786;37.680;2024-02-15T02:30:48;9.79;80.27
78988;DHT22;74752;44.786;37.680;2024-02-15T02:31:51;9.80;80.56
78988;DHT22;74752;44.786;37.680;2024-02-15T02:32:59;9.80;80.43
78988;DHT22;74752;44.786;37.680;2024-02-15T02:34:02;9.79;80.78
78988;DHT22;74752;44.786;37.680;2024-02-15T02:35:08;9.76;81.06
78988;DHT22;74752;44.786;37.680;2024-02-15T02:36:18;9.75;81.15
78988;DHT22;74752;44.786;37.680;2024-02-15T02:37:21;9.71;81.04
78988;DHT22;74752;44.786;37.680;2024-02-15T02:38:24;9.72;80.85
78988;DHT22;74752;44.786;37.680;2024-02-15T02:39:39;9.72;80.91
78988;DHT22;74752;44.786;37.680;2024-02-15T02:40:42;9.69;81.47
78988;DHT22;74752;44.786;37.680;2024-02-15T02:41:44;9.67;81.65
78988;DHT22;74752;44.786;37.680;2024-02-15T02:42:53;9.66;81.81
78988;DHT22;74752;44.786;37.680;2024-02-15T02:43:58;9.65;81.83
78988;DHT22;74752;44.786;37.680;2024-02-15T02:45:04;9.62;81.88
78988;DHT22;74752;44.786;37.680;2024-02-15T02:46:06;9.61;82.06
78988;DHT22;74752;44.786;37.680;2024-02-15T02:47:08;9.61;82.11
78988;DHT22;74752;44.786;37.680;2024-02-15T02:48:11;9.60;82.10
78988;DHT22;74752;44.786;37.680;2024-02-15T02:49:13;9.60;82.20
78988;DHT22;74752;44.786;37.680;2024-02-15T02:50:16;9.59;82.36
78988;DHT22;74752;44.786;37.680;2024-02-15T02:51:17;9.54;82.35
78988;DHT22;74752;44.786;37.680;2024-02-15T02:52:28;9.51;82.72
78988;DHT22;74752;44.786;37.680;2024-02-15T02:53:31;9.48;82.71
78988;DHT22;74752;44.786;37.680;2024-02-15T02:54:33;9.45;83.01
78988;DHT22;74752;44.786;37.680;2024-02-15T02:55:36;9.46;83.08
78988;DHT22;74752;44.786;37.680;2024-02-15T02:56:37;9.47;83.01
78988;DHT22;74752;44.786;37.680;2024-02-15T02:57:39;9.45;82.93
78988;DHT22;74752;44.786;37.680;2024-02-15T02:58:41;9.41;83.05
78988;DHT22;74752;44.786;37.680;2024-02-15T02:59:48;9.38;83.04
78988;DHT22;74752;44.786;37.680;2024-02-15T03:01:14;9.38;83.10
78988;DHT22;74752;44.786;37.680;2024-02-15T03:02:16;9.37;83.17
78988;DHT22;74752;44.786;37.680;2024-02-15T03:03:21;9.35;83.14
78988;DHT22;74752;44.786;37.680;2024-02-15T03:04:26;9.34;83.33
78988;DHT22;74752;44.786;37.680;2024-02-15T03:05:28;9.34;83.19
78988;DHT22;74752;44.786;37.680;2024-02-15T03:06:34;9.36;83.16
78988;DHT22;74752;44.786;37.680;2024-02-15T03:07:37;9.38;83.12
78988;DHT22;74752;44.786;37.680;2024-02-15T03:08:39;9.38;83.00
78988;DHT22;74752;44.786;37.680;2024-02-15T03:09:42;9.34;83.04
78988;DHT22;74752;44.786;37.680;2024-02-15T03:10:47;9.33;83.03
78988;DHT22;74752;44.786;37.680;2024-02-15T03:11:48;9.38;82.89
78988;DHT22;74752;44.786;37.680;2024-02-15T03:12:51;9.40;82.78
78988;DHT22;74752;44.786;37.680;2024-02-15T03:13:54;9.36;82.98
78988;DHT22;74752;44.786;37.680;2024-02-15T03:15:07;9.36;83.04
78988;DHT22;74752;44.786;37.680;2024-02-15T03:16:16;9.37;83.03
78988;DHT22;74752;44.786;37.680;2024-02-15T03:17:23;9.37;83.10
78988;DHT22;74752;44.786;37.680;2024-02-15T03:18:26;9.37;82.89
78988;DHT22;74752;44.786;37.680;2024-02-15T03:19:27;9.35;83.13
78988;DHT22;74752;44.786;37.680;2024-02-15T03:20:29;9.33;83.03
78988;DHT22;74752;44.786;37.680;2024-02-15T03:21:31;9.30;82.99
78988;DHT22;74752;44.786;37.680;2024-02-15T03:22:39;9.30;83.16
78988;DHT22;74752;44.786;37.680;2024-02-15T03:23:43;9.25;83.00
78988;DHT22;74752;44.786;37.680;2024-02-15T03:24:45;9.23;83.24
78988;DHT22;74752;44.786;37.680;2024-02-15T03:25:47;9.21;83.32
78988;DHT22;74752;44.786;37.680;2024-02-15T03:26:51;9.21;83.37
78988;DHT22;74752;44.786;37.680;2024-02-15T03:27:55;9.20;83.23
78988;DHT22;74752;44.786;37.680;2024-02-15T03:28:57;9.22;83.33
78988;DHT22;74752;44.786;37.680;2024-02-15T03:30:03;9.20;82.97
78988;DHT22;74752;44.786;37.680;2024-02-15T03:31:06;9.17;83.08
78988;DHT22;74752;44.786;37.680;2024-02-15T03:32:14;9.18;83.29
78988;DHT22;74752;44.786;37.680;2024-02-15T03:33:16;9.20;83.00
78988;DHT22;74752;44.786;37.680;2024-02-15T03:34:22;9.19;83.26
78988;DHT22;74752;44.786;37.680;2024-02-15T03:35:27;9.19;83.10
78988;DHT22;74752;44.786;37.680;2024-02-15T03:36:36;9.20;83.20
78988;DHT22;74752;44.786;37.680;2024-02-15T03:37:42;9.22;83.25
78988;DHT22;74752;44.786;37.680;2024-02-15T03:38:46;9.21;83.21
78988;DHT22;74752;44.786;37.680;2024-02-15T03:39:55;9.17;83.57
78988;DHT22;74752;44.786;37.680;2024-02-15T03:41:01;9.14;83.58
78988;DHT22;74752;44.786;37.680;2024-02-15T03:42:04;9.11;83.71
78988;DHT22;74752;44.786;37.680;2024-02-15T03:43:08;9.11;83.76
78988;DHT22;74752;44.786;37.680;2024-02-15T03:44:13;9.10;83.70
78988;DHT22;74752;44.786;37.680;2024-02-15T03:45:16;9.09;83.63
78988;DHT22;74752;44.786;37.680;2024-02-15T03:46:18;9.08;83.84
78988;DHT22;74752;44.786;37.680;2024-02-15T03:47:26;9.09;83.92
78988;DHT22;74752;44.786;37.680;2024-02-15T03:48:33;9.11;83.97
78988;DHT22;74752;44.786;37.680;2024-02-15T03:49:35;9.11;84.03
78988;DHT22;74752;44.786;37.680;2024-02-15T03:50:42;9.07;83.59
78988;DHT22;74752;44.786;37.680;2024-02-15T03:51:44;9.04;83.85
78988;DHT22;74752;44.786;37.680;2024-02-15T03:52:51;9.03;84.04
78988;DHT22;74752;44.786;37.680;2024-02-15T03:53:53;9.03;83.97
78988;DHT22;74752;44.786;37.680;2024-02-15T03:54:58;9.05;84.03
78988;DHT22;74752;44.786;37.680;2024-02-15T03:56:01;9.05;84.16
78988;DHT22;74752;44.786;37.680;2024-02-15T03:57:03;9.02;84.39
78988;DHT22;74752;44.786;37.680;2024-02-15T03:58:06;9.03;84.14
78988;DHT22;74752;44.786;37.680;2024-02-15T03:59:12;9.04;84.08
78988;DHT22;74752;44.786;37.680;2024-02-15T04:00:15;9.02;84.45
78988;DHT22;74752;44.786;37.680;2024-02-15T04:01:26;8.97;84.58
78988;DHT22;74752;44.786;37.680;2024-02-15T04:02:28;8.97;84.48
78988;DHT22;74752;44.786;37.680;2024-02-15T04:03:34;9.00;84.15
78988;DHT22;74752;44.786;37.680;2024-02-15T04:04:38;8.97;84.34
78988;DHT22;74752;44.786;37.680;2024-02-15T04:05:49;9.00;84.32
78988;DHT22;74752;44.786;37.680;2024-02-15T04:06:56;8.98;84.39
78988;DHT22;74752;44.786;37.680;2024-02-15T04:07:57;9.01;84.14
78988;DHT22;74752;44.786;37.680;2024-02-15T04:09:07;9.03;84.24
78988;DHT22;74752;44.786;37.680;2024-02-15T04:10:09;9.04;84.35
78988;DHT22;74752;44.786;37.680;2024-02-15T04:11:11;9.01;84.73
78988;DHT22;74752;44.786;37.680;2024-02-15T04:12:13;8.98;84.52
78988;DHT22;74752;44.786;37.680;2024-02-15T04:13:16;8.94;84.68
78988;DHT22;74752;44.786;37.680;2024-02-15T04:14:18;8.96;84.42
78988;DHT22;74752;44.786;37.680;2024-02-15T04:15:22;8.97;84.58
78988;DHT22;74752;44.786;37.680;2024-02-15T04:16:25;8.98;84.78
78988;DHT22;74752;44.786;37.680;2024-02-15T04:17:32;8.94;84.97
78988;DHT22;74752;44.786;37.680;2024-02-15T04:18:36;8.91;85.23
78988;DHT22;74752;44.786;37.680;2024-02-15T04:19:45;8.89;85.32
78988;DHT22;74752;44.786;37.680;2024-02-15T04:20:52;8.86;85.48
78988;DHT22;74752;44.786;37.680;2024-02-15T04:21:54;8.88;85.56
78988;DHT22;74752;44.786;37.680;2024-02-15T04:23:02;8.83;85.53
78988;DHT22;74752;44.786;37.680;2024-02-15T04:24:07;8.81;85.58
78988;DHT22;74752;44.786;37.680;2024-02-15T04:25:12;8.80;85.71
78988;DHT22;74752;44.786;37.680;2024-02-15T04:26:31;8.81;85.74
78988;DHT22;74752;44.786;37.680;2024-02-15T04:27:34;8.79;86.03
78988;DHT22;74752;44.786;37.680;2024-02-15T04:28:36;8.74;86.33
78988;DHT22;74752;44.786;37.680;2024-02-15T04:29:38;8.74;86.32
78988;DHT22;74752;44.786;37.680;2024-02-15T04:30:49;8.71;86.26
78988;DHT22;74752;44.786;37.680;2024-02-15T04:31:57;8.73;86.29
78988;DHT22;74752;44.786;37.680;2024-02-15T04:32:59;8.72;86.41
78988;DHT22;74752;44.786;37.680;2024-02-15T04:34:01;8.71;86.28
78988;DHT22;74752;44.786;37.680;2024-02-15T04:35:05;8.71;86.30
78988;DHT22;74752;44.786;37.680;2024-02-15T04:36:07;8.74;86.28
78988;DHT22;74752;44.786;37.680;2024-02-15T04:37:12;8.75;86.21
78988;DHT22;74752;44.786;37.680;2024-02-15T04:38:16;8.78;86.03
78988;DHT22;74752;44.786;37.680;2024-02-15T04:39:22;8.82;85.66
78988;DHT22;74752;44.786;37.680;2024-02-15T04:40:31;8.80;85.60
78988;DHT22;74752;44.786;37.680;2024-02-15T04:41:34;8.77;85.69
78988;DHT22;74752;44.786;37.680;2024-02-15T04:42:37;8.77;85.79
78988;DHT22;74752;44.786;37.680;2024-02-15T04:43:41;8.71;85.96
78988;DHT22;74752;44.786;37.680;2024-02-15T04:44:46;8.70;86.00
78988;DHT22;74752;44.786;37.680;2024-02-15T04:45:51;8.70;86.04
78988;DHT22;74752;44.786;37.680;2024-02-15T04:46:59;8.65;86.22
78988;DHT22;74752;44.786;37.680;2024-02-15T04:48:06;8.65;86.18
78988;DHT22;74752;44.786;37.680;2024-02-15T04:49:08;8.66;86.15
78988;DHT22;74752;44.786;37.680;2024-02-15T04:50:12;8.70;85.90
78988;DHT22;74752;44.786;37.680;2024-02-15T04:51:16;8.68;85.53
78988;DHT22;74752;44.786;37.680;2024-02-15T04:52:24;8.65;85.60
78988;DHT22;74752;44.786;37.680;2024-02-15T04:53:26;8.64;85.62
78988;DHT22;74752;44.786;37.680;2024-02-15T04:54:34;8.66;85.39
78988;DHT22;74752;44.786;37.680;2024-02-15T04:55:38;8.71;85.32
78988;DHT22;74752;44.786;37.680;2024-02-15T04:56:42;8.71;85.16
78988;DHT22;74752;44.786;37.680;2024-02-15T04:57:44;8.71;84.86
78988;DHT22;74752;44.786;37.680;2024-02-15T04:58:48;8.74;84.68
78988;DHT22;74752;44.786;37.680;2024-02-15T04:59:52;8.76;84.50
78988;DHT22;74752;44.786;37.680;2024-02-15T05:00:55;8.78;84.46
78988;DHT22;74752;44.786;37.680;2024-02-15T05:02:03;8.78;84.54
78988;DHT22;74752;44.786;37.680;2024-02-15T05:03:06;8.74;84.75
78988;DHT22;74752;44.786;37.680;2024-02-15T05:04:13;8.75;84.78
78988;DHT22;74752;44.786;37.680;2024-02-15T05:05:15;8.74;84.70
78988;DHT22;74752;44.786;37.680;2024-02-15T05:06:21;8.75;84.69
78988;DHT22;74752;44.786;37.680;2024-02-15T05:07:28;8.76;84.55
78988;DHT22;74752;44.786;37.680;2024-02-15T05:08:37;8.77;84.52
78988;DHT22;74752;44.786;37.680;2024-02-15T05:09:46;8.78;84.61
78988;DHT22;74752;44.786;37.680;2024-02-15T05:10:54;8.76;84.43
78988;DHT22;74752;44.786;37.680;2024-02-15T05:12:02;8.74;84.39
78988;DHT22;74752;44.786;37.680;2024-02-15T05:13:11;8.73;84.66
78988;DHT22;74752;44.786;37.680;2024-02-15T05:14:14;8.73;84.52
78988;DHT22;74752;44.786;37.680;2024-02-15T05:15:23;8.77;84.44
78988;DHT22;74752;44.786;37.680;2024-02-15T05:16:26;8.75;84.29
78988;DHT22;74752;44.786;37.680;2024-02-15T05:17:28;8.70;84.67
78988;DHT22;74752;44.786;37.680;2024-02-15T05:18:33;8.66;84.64
78988;DHT22;74752;44.786;37.680;2024-02-15T05:19:36;8.63;84.79
78988;DHT22;74752;44.786;37.680;2024-02-15T05:20:40;8.67;84.58
78988;DHT22;74752;44.786;37.680;2024-02-15T05:21:44;8.71;84.28
78988;DHT22;74752;44.786;37.680;2024-02-15T05:22:49;8.73;84.37
78988;DHT22;74752;44.786;37.680;2024-02-15T05:23:54;8.70;84.50
78988;DHT22;74752;44.786;37.680;2024-02-15T05:24:56;8.64;84.64
78988;DHT22;74752;44.786;37.680;2024-02-15T05:25:58;8.62;84.64
78988;DHT22;74752;44.786;37.680;2024-02-15T05:27:06;8.62;84.52
78988;DHT22;74752;44.786;37.680;2024-02-15T05:28:07;8.61;84.78
78988;DHT22;74752;44.786;37.680;2024-02-15T05:29:19;8.64;84.43
78988;DHT22;74752;44.786;37.680;2024-02-15T05:30:23;8.67;84.29
78988;DHT22;74752;44.786;37.680;2024-02-15T05:31:25;8.65;84.42
78988;DHT22;74752;44.786;37.680;2024-02-15T05:32:27;8.64;84.21
78988;DHT22;74752;44.786;37.680;2024-02-15T05:33:32;8.64;84.29
78988;DHT22;74752;44.786;37.680;2024-02-15T05:34:34;8.65;84.19
78988;DHT22;74752;44.786;37.680;2024-02-15T05:35:44;8.72;83.98
78988;DHT22;74752;44.786;37.680;2024-02-15T05:36:55;8.73;83.84
78988;DHT22;74752;44.786;37.680;2024-02-15T05:37:57;8.70;84.07
78988;DHT22;74752;44.786;37.680;2024-02-15T05:39:06;8.63;84.49
78988;DHT22;74752;44.786;37.680;2024-02-15T05:40:13;8.64;84.54
78988;DHT22;74752;44.786;37.680;2024-02-15T05:41:19;8.70;84.16
78988;DHT22;74752;44.786;37.680;2024-02-15T05:42:25;8.76;83.83
78988;DHT22;74752;44.786;37.680;2024-02-15T05:43:28;8.76;83.73
78988;DHT22;74752;44.786;37.680;2024-02-15T05:44:31;8.72;84.10
78988;DHT22;74752;44.786;37.680;2024-02-15T05:45:36;8.72;83.83
78988;DHT22;74752;44.786;37.680;2024-02-15T05:46:41;8.72;83.71
78988;DHT22;74752;44.786;37.680;2024-02-15T05:47:45;8.65;84.05
78988;DHT22;74752;44.786;37.680;2024-02-15T05:48:47;8.57;84.28
78988;DHT22;74752;44.786;37.680;2024-02-15T05:49:56;8.50;84.68
78988;DHT22;74752;44.786;37.680;2024-02-15T05:51:07;8.49;84.91
78988;DHT22;74752;44.786;37.680;2024-02-15T05:52:12;8.47;85.00
78988;DHT22;74752;44.786;37.680;2024-02-15T05:53:18;8.45;84.94
78988;DHT22;74752;44.786;37.680;2024-02-15T05:54:21;8.34;85.29
78988;DHT22;74752;44.786;37.680;2024-02-15T05:55:30;8.32;85.47
78988;DHT22;74752;44.786;37.680;2024-02-15T05:56:42;8.27;85.91
78988;DHT22;74752;44.786;37.680;2024-02-15T05:57:44;8.21;85.90
78988;DHT22;74752;44.786;37.680;2024-02-15T05:58:46;8.23;85.87
78988;DHT22;74752;44.786;37.680;2024-02-15T05:59:53;8.22;85.89
78988;DHT22;74752;44.786;37.680;2024-02-15T06:00:56;8.27;85.58
78988;DHT22;74752;44.786;37.680;2024-02-15T06:02:04;8.34;85.31
78988;DHT22;74752;44.786;37.680;2024-02-15T06:03:08;8.36;85.00
78988;DHT22;74752;44.786;37.680;2024-02-15T06:04:17;8.32;85.11
78988;DHT22;74752;44.786;37.680;2024-02-15T06:05:20;8.23;85.29
78988;DHT22;74752;44.786;37.680;2024-02-15T06:06:32;8.21;85.35
78988;DHT22;74752;44.786;37.680;2024-02-15T06:07:35;8.24;85.47
78988;DHT22;74752;44.786;37.680;2024-02-15T06:08:37;8.21;85.46
78988;DHT22;74752;44.786;37.680;2024-02-15T06:09:42;8.16;85.49
78988;DHT22;74752;44.786;37.680;2024-02-15T06:10:46;8.12;85.69
78988;DHT22;74752;44.786;37.680;2024-02-15T06:11:55;8.08;86.03
78988;DHT22;74752;44.786;37.680;2024-02-15T06:12:58;8.11;85.82
78988;DHT22;74752;44.786;37.680;2024-02-15T06:14:01;8.16;85.71
78988;DHT22;74752;44.786;37.680;2024-02-15T06:15:07;8.24;85.07
78988;DHT22;74752;44.786;37.680;2024-02-15T06:16:17;8.32;85.06
78988;DHT22;74752;44.786;37.680;2024-02-15T06:17:28;8.38;84.41
78988;DHT22;74752;44.786;37.680;2024-02-15T06:18:35;8.39;83.97
78988;DHT22;74752;44.786;37.680;2024-02-15T06:19:38;8.34;84.20
78988;DHT22;74752;44.786;37.680;2024-02-15T06:20:49;8.27;84.54
78988;DHT22;74752;44.786;37.680;2024-02-15T06:21:51;8.22;84.55
78988;DHT22;74752;44.786;37.680;2024-02-15T06:22:54;8.20;84.84
78988;DHT22;74752;44.786;37.680;2024-02-15T06:23:56;8.20;85.13
78988;DHT22;74752;44.786;37.680;2024-02-15T06:24:58;8.26;84.97
78988;DHT22;74752;44.786;37.680;2024-02-15T06:26:01;8.29;84.39
78988;DHT22;74752;44.786;37.680;2024-02-15T06:27:05;8.24;84.12
78988;DHT22;74752;44.786;37.680;2024-02-15T06:28:07;8.18;84.53
78988;DHT22;74752;44.786;37.680;2024-02-15T06:29:36;8.08;85.00
78988;DHT22;74752;44.786;37.680;2024-02-15T06:30:58;8.06;85.04
78988;DHT22;74752;44.786;37.680;2024-02-15T06:32:23;8.02;85.06
78988;DHT22;74752;44.786;37.680;2024-02-15T06:33:44;7.97;85.42
78988;DHT22;74752;44.786;37.680;2024-02-15T06:35:07;7.92;85.27
78988;DHT22;74752;44.786;37.680;2024-02-15T06:36:27;7.89;85.60
78988;DHT22;74752;44.786;37.680;2024-02-15T06:37:54;7.89;85.93
78988;DHT22;74752;44.786;37.680;2024-02-15T06:39:17;7.93;85.35
78988;DHT22;74752;44.786;37.680;2024-02-15T06:40:42;7.96;85.46
78988;DHT22;74752;44.786;37.680;2024-02-15T06:41:44;7.99;84.91
78988;DHT22;74752;44.786;37.680;2024-02-15T06:42:46;7.98;85.11
78988;DHT22;74752;44.786;37.680;2024-02-15T06:43:48;7.90;85.19
78988;DHT22;74752;44.786;37.680;2024-02-15T06:44:54;7.90;85.42
78988;DHT22;74752;44.786;37.680;2024-02-15T06:45:56;7.97;85.06
78988;DHT22;74752;44.786;37.680;2024-02-15T06:46:58;7.94;84.79
78988;DHT22;74752;44.786;37.680;2024-02-15T06:48:01;7.88;85.00
78988;DHT22;74752;44.786;37.680;2024-02-15T06:49:04;7.86;85.29
78988;DHT22;74752;44.786;37.680;2024-02-15T06:50:09;7.86;85.37